Fu Ning Wan — VRDN9 — position and weather

sailwx.info

Track history (hours):
 
Tides and Currents Weather Stations Pressure Air Temp Water Temp Dewpoint Dewpoint Depression Visibility Wind Speed Wind Dir Waves Ship Positions

Fu Ning Wan

Last reported at 2016-Feb-02 02:15 UTC. Time now 2016-Feb-06 09:18 UTC.
Position N 31°05' E 122°02'.

Length 102 m; draft 5.7 m.

Type: Tanker. MMSI: 477003600.

Date/timePositionNaut miles runAvg speedWind from/ knotsBaromVisibWave heightAir tempDewpointWater temp
2016-Feb-02 02:15N 31°05' E 122°02'912.7
2016-Feb-02 01:34N 31°09' E 121°53'1413.4
2016-Feb-02 00:31N 31°19' E 121°42'1111.6
2016-Feb-01 23:33N 31°25' E 121°31'10 9.6
2016-Feb-01 22:33N 31°31' E 121°23'3 2.9
2016-Feb-01 21:33N 31°34' E 121°21'0 0.0
2016-Feb-01 20:30N 31°34' E 121°21'0 0.1
2016-Feb-01 19:33N 31°34' E 121°21'0 0.0
2016-Feb-01 18:33N 31°34' E 121°21'0 0.0
2016-Feb-01 17:33N 31°34' E 121°21'0 0.0
2016-Feb-01 16:33N 31°34' E 121°21'0 0.0
2016-Feb-01 15:33N 31°34' E 121°21'0 0.0
2016-Feb-01 14:33N 31°34' E 121°21'0 0.0
2016-Feb-01 13:33N 31°34' E 121°21'0 0.1
2016-Feb-01 12:33N 31°34' E 121°21'0 0.0
2016-Feb-01 11:30N 31°34' E 121°21'4 4.2
2016-Feb-01 10:33N 31°36' E 121°17'1111.0
2016-Feb-01 09:33N 31°43' E 121°07'2512.5
2016-Feb-01 07:32N 32°01' E 120°46'1312.4
2016-Feb-01 06:30N 32°04' E 120°31'1413.3
2016-Feb-01 05:25N 31°57' E 120°17'1112.8
2016-Feb-01 04:32N 31°58' E 120°03'  
2016-Jan-27 06:30N 31°58' E 120°02'9 9.9
2016-Jan-27 05:33N 31°56' E 120°13'11 9.6
2016-Jan-27 04:26N 32°01' E 120°24'8 7.7
2016-Jan-27 03:25N 32°03' E 120°33'9 9.1
2016-Jan-27 02:28N 32°00' E 120°42'9 9.0
2016-Jan-27 01:29N 31°57' E 120°52'1010.2
2016-Jan-27 00:28N 31°47' E 120°56'9 9.5
2016-Jan-26 23:33N 31°45' E 121°06'1110.7
2016-Jan-26 22:33N 31°38' E 121°16'5 4.9
2016-Jan-26 21:31N 31°34' E 121°20'0 0.2
2016-Jan-26 20:31N 31°34' E 121°20'0 0.0
2016-Jan-26 19:31N 31°34' E 121°20'0 0.0
2016-Jan-26 18:28N 31°34' E 121°20'0 0.0
2016-Jan-26 17:31N 31°34' E 121°20'0 0.1
2016-Jan-26 16:31N 31°34' E 121°20'0 0.1
2016-Jan-26 15:25N 31°34' E 121°20'0 0.0
2016-Jan-26 14:28N 31°34' E 121°20'0 0.0
2016-Jan-26 13:31N 31°34' E 121°20'0 0.0
2016-Jan-26 12:31N 31°34' E 121°20'0 0.0
2016-Jan-26 10:31N 31°34' E 121°20'0 0.1
2016-Jan-26 09:31N 31°34' E 121°20'0 0.1
2016-Jan-26 08:31N 31°34' E 121°20'0 0.3
2016-Jan-26 07:33N 31°34' E 121°20'1110.7
2016-Jan-26 06:33N 31°27' E 121°29'7 7.2
2016-Jan-26 05:34N 31°23' E 121°36'8 7.7
2016-Jan-26 04:32N 31°18' E 121°43'3110.3
2016-Jan-26 01:33N 31°03' E 122°15'76 2.9
2016-Jan-24 23:16N 29°50' E 122°37'30 8.0
2016-Jan-24 19:32N 29°20' E 122°30'  
Track history (hours):
 
Tides and Currents Weather Stations Pressure Air Temp Water Temp Dewpoint Dewpoint Depression Visibility Wind Speed Wind Dir Waves Ship Positions

Fu Ning Wan

Last reported at 2016-Feb-02 02:15 UTC. Time now 2016-Feb-06 09:18 UTC.
Position N 31°05' E 122°02'.

Length 102 m; draft 5.7 m.

Type: Tanker. MMSI: 477003600.

Date/timePositionNaut miles runAvg speedWind from/ knotsBaromVisibWave heightAir tempDewpointWater temp
2016-Feb-02 02:15N 31°05' E 122°02'912.7
2016-Feb-02 01:34N 31°09' E 121°53'1413.4
2016-Feb-02 00:31N 31°19' E 121°42'1111.6
2016-Feb-01 23:33N 31°25' E 121°31'10 9.6
2016-Feb-01 22:33N 31°31' E 121°23'3 2.9
2016-Feb-01 21:33N 31°34' E 121°21'0 0.0
2016-Feb-01 20:30N 31°34' E 121°21'0 0.1
2016-Feb-01 19:33N 31°34' E 121°21'0 0.0
2016-Feb-01 18:33N 31°34' E 121°21'0 0.0
2016-Feb-01 17:33N 31°34' E 121°21'0 0.0
2016-Feb-01 16:33N 31°34' E 121°21'0 0.0
2016-Feb-01 15:33N 31°34' E 121°21'0 0.0
2016-Feb-01 14:33N 31°34' E 121°21'0 0.0
2016-Feb-01 13:33N 31°34' E 121°21'0 0.1
2016-Feb-01 12:33N 31°34' E 121°21'0 0.0
2016-Feb-01 11:30N 31°34' E 121°21'4 4.2
2016-Feb-01 10:33N 31°36' E 121°17'1111.0
2016-Feb-01 09:33N 31°43' E 121°07'2512.5
2016-Feb-01 07:32N 32°01' E 120°46'1312.4
2016-Feb-01 06:30N 32°04' E 120°31'1413.3
2016-Feb-01 05:25N 31°57' E 120°17'1112.8
2016-Feb-01 04:32N 31°58' E 120°03'  
2016-Jan-27 06:30N 31°58' E 120°02'9 9.9
2016-Jan-27 05:33N 31°56' E 120°13'11 9.6
2016-Jan-27 04:26N 32°01' E 120°24'8 7.7
2016-Jan-27 03:25N 32°03' E 120°33'9 9.1
2016-Jan-27 02:28N 32°00' E 120°42'9 9.0
2016-Jan-27 01:29N 31°57' E 120°52'1010.2
2016-Jan-27 00:28N 31°47' E 120°56'9 9.5
2016-Jan-26 23:33N 31°45' E 121°06'1110.7
2016-Jan-26 22:33N 31°38' E 121°16'5 4.9
2016-Jan-26 21:31N 31°34' E 121°20'0 0.2
2016-Jan-26 20:31N 31°34' E 121°20'0 0.0
2016-Jan-26 19:31N 31°34' E 121°20'0 0.0
2016-Jan-26 18:28N 31°34' E 121°20'0 0.0
2016-Jan-26 17:31N 31°34' E 121°20'0 0.1
2016-Jan-26 16:31N 31°34' E 121°20'0 0.1
2016-Jan-26 15:25N 31°34' E 121°20'0 0.0
2016-Jan-26 14:28N 31°34' E 121°20'0 0.0
2016-Jan-26 13:31N 31°34' E 121°20'0 0.0
2016-Jan-26 12:31N 31°34' E 121°20'0 0.0
2016-Jan-26 10:31N 31°34' E 121°20'0 0.1
2016-Jan-26 09:31N 31°34' E 121°20'0 0.1
2016-Jan-26 08:31N 31°34' E 121°20'0 0.3
2016-Jan-26 07:33N 31°34' E 121°20'1110.7
2016-Jan-26 06:33N 31°27' E 121°29'7 7.2
2016-Jan-26 05:34N 31°23' E 121°36'8 7.7
2016-Jan-26 04:32N 31°18' E 121°43'3110.3
2016-Jan-26 01:33N 31°03' E 122°15'76 2.9
2016-Jan-24 23:16N 29°50' E 122°37'30 8.0
2016-Jan-24 19:32N 29°20' E 122°30'  

Dump ship's entire track history